Time;durP1;ratioP1;P1;durP2;ratioP2;P2;SDS_P1;SDS_P2;PMS_P1;PMS_P2;Temp;Humidity;BMP_temperature;BMP_pressure;BME280_temperature;BME280_humidity;BME280_pressure;Samples;Min_cycle;Max_cycle;Signal;HPM_P1;HPM_P2
2021/01/16 00:02:20;;;;;;;2.8;1.9;;;;;;;;;;;;;
2021/01/16 00:04:45;;;;;;;6.9;2.2;;;;;;;;;;;;;
2021/01/16 00:07:10;;;;;;;2.1;1.8;;;;;;;;;;;;;
2021/01/16 00:09:36;;;;;;;1.7;1.5;;;;;;;;;;;;;
2021/01/16 00:12:01;;;;;;;4.1;2.2;;;;;;;;;;;;;
2021/01/16 00:14:27;;;;;;;2;1.4;;;;;;;;;;;;;
2021/01/16 00:16:52;;;;;;;3.5;1.9;;;;;;;;;;;;;
2021/01/16 00:19:17;;;;;;;6.1;2;;;;;;;;;;;;;
2021/01/16 00:21:42;;;;;;;3.7;1.8;;;;;;;;;;;;;
2021/01/16 00:24:07;;;;;;;2.8;1.3;;;;;;;;;;;;;
2021/01/16 00:26:32;;;;;;;1.6;1.3;;;;;;;;;;;;;
2021/01/16 00:28:57;;;;;;;5.3;2.2;;;;;;;;;;;;;
2021/01/16 00:31:23;;;;;;;1.4;1.1;;;;;;;;;;;;;
2021/01/16 00:33:48;;;;;;;2.7;1.3;;;;;;;;;;;;;
2021/01/16 00:36:14;;;;;;;2.4;1.6;;;;;;;;;;;;;
2021/01/16 00:38:40;;;;;;;2.9;1.6;;;;;;;;;;;;;
2021/01/16 00:41:05;;;;;;;2.4;1.3;;;;;;;;;;;;;
2021/01/16 00:43:30;;;;;;;1.5;1.2;;;;;;;;;;;;;
2021/01/16 00:45:55;;;;;;;2.1;1.9;;;;;;;;;;;;;
2021/01/16 00:48:20;;;;;;;1.4;1.1;;;;;;;;;;;;;
2021/01/16 00:50:45;;;;;;;3.6;1.9;;;;;;;;;;;;;
2021/01/16 00:53:10;;;;;;;2.4;1.9;;;;;;;;;;;;;
2021/01/16 00:55:36;;;;;;;2.6;2;;;;;;;;;;;;;
2021/01/16 00:58:01;;;;;;;4.6;2.3;;;;;;;;;;;;;
2021/01/16 01:00:26;;;;;;;4.3;2.4;;;;;;;;;;;;;
2021/01/16 01:02:51;;;;;;;3.4;1.8;;;;;;;;;;;;;
2021/01/16 01:05:16;;;;;;;2.1;1.5;;;;;;;;;;;;;
2021/01/16 01:07:41;;;;;;;2.1;1.8;;;;;;;;;;;;;
2021/01/16 01:10:06;;;;;;;4.9;1.9;;;;;;;;;;;;;
2021/01/16 01:12:31;;;;;;;2.1;1.5;;;;;;;;;;;;;
2021/01/16 01:14:57;;;;;;;2.4;1.6;;;;;;;;;;;;;
2021/01/16 01:17:22;;;;;;;3.6;2.5;;;;;;;;;;;;;
2021/01/16 01:19:48;;;;;;;3.2;2;;;;;;;;;;;;;
2021/01/16 01:22:12;;;;;;;2.7;1.8;;;;;;;;;;;;;
2021/01/16 01:24:37;;;;;;;3.2;1.5;;;;;;;;;;;;;
2021/01/16 01:27:03;;;;;;;1.4;1.2;;;;;;;;;;;;;
2021/01/16 01:29:28;;;;;;;5.6;2.9;;;;;;;;;;;;;
2021/01/16 01:31:53;;;;;;;3.4;1.7;;;;;;;;;;;;;
2021/01/16 01:34:18;;;;;;;1.8;1.3;;;;;;;;;;;;;
2021/01/16 01:36:43;;;;;;;2.5;1.9;;;;;;;;;;;;;
2021/01/16 01:39:08;;;;;;;2.2;1.8;;;;;;;;;;;;;
2021/01/16 01:41:34;;;;;;;5;3.3;;;;;;;;;;;;;
2021/01/16 01:43:59;;;;;;;3.3;1.7;;;;;;;;;;;;;
2021/01/16 01:46:24;;;;;;;2.1;1.9;;;;;;;;;;;;;
2021/01/16 01:48:54;;;;;;;2.1;1.4;;;;;;;;;;;;;
2021/01/16 01:51:14;;;;;;;3.4;1.7;;;;;;;;;;;;;
2021/01/16 01:53:40;;;;;;;2.2;1.7;;;;;;;;;;;;;
2021/01/16 01:56:05;;;;;;;2.5;1.3;;;;;;;;;;;;;
2021/01/16 01:58:31;;;;;;;2.6;1.1;;;;;;;;;;;;;
2021/01/16 02:00:56;;;;;;;4.5;1.7;;;;;;;;;;;;;
2021/01/16 02:03:21;;;;;;;2.3;1.2;;;;;;;;;;;;;
2021/01/16 02:05:47;;;;;;;1.7;1.3;;;;;;;;;;;;;
2021/01/16 02:08:12;;;;;;;2.7;1.9;;;;;;;;;;;;;
2021/01/16 02:10:37;;;;;;;4.5;1.7;;;;;;;;;;;;;
2021/01/16 02:13:02;;;;;;;2.8;1.6;;;;;;;;;;;;;
2021/01/16 02:15:27;;;;;;;1.9;1.3;;;;;;;;;;;;;
2021/01/16 02:17:52;;;;;;;2.4;1.9;;;;;;;;;;;;;
2021/01/16 02:20:17;;;;;;;2.4;2;;;;;;;;;;;;;
2021/01/16 02:22:43;;;;;;;3.1;2.2;;;;;;;;;;;;;
2021/01/16 02:25:08;;;;;;;2.2;1.7;;;;;;;;;;;;;
2021/01/16 02:27:33;;;;;;;2.1;1.5;;;;;;;;;;;;;
2021/01/16 02:29:58;;;;;;;2;1.6;;;;;;;;;;;;;
2021/01/16 02:32:24;;;;;;;3.9;1.7;;;;;;;;;;;;;
2021/01/16 02:34:49;;;;;;;1.5;1.3;;;;;;;;;;;;;
2021/01/16 02:37:14;;;;;;;3.1;1.7;;;;;;;;;;;;;
2021/01/16 02:39:40;;;;;;;2;1.7;;;;;;;;;;;;;
2021/01/16 02:42:05;;;;;;;2.9;1.7;;;;;;;;;;;;;
2021/01/16 02:44:30;;;;;;;2;1.6;;;;;;;;;;;;;
2021/01/16 02:46:55;;;;;;;2.5;1.5;;;;;;;;;;;;;
2021/01/16 02:49:21;;;;;;;1.2;1.1;;;;;;;;;;;;;
2021/01/16 02:51:45;;;;;;;1.1;1;;;;;;;;;;;;;
2021/01/16 02:54:11;;;;;;;1.2;1.1;;;;;;;;;;;;;
2021/01/16 02:56:36;;;;;;;1;0.9;;;;;;;;;;;;;
2021/01/16 02:59:01;;;;;;;1.3;1.1;;;;;;;;;;;;;
2021/01/16 03:01:26;;;;;;;2.3;1.2;;;;;;;;;;;;;
2021/01/16 03:03:51;;;;;;;0.8;0.8;;;;;;;;;;;;;
2021/01/16 03:06:16;;;;;;;1.4;1.3;;;;;;;;;;;;;
2021/01/16 03:08:42;;;;;;;2.5;1.2;;;;;;;;;;;;;
2021/01/16 03:11:07;;;;;;;1.2;1.1;;;;;;;;;;;;;
2021/01/16 03:13:33;;;;;;;2.6;1.6;;;;;;;;;;;;;
2021/01/16 03:15:58;;;;;;;2.1;1.9;;;;;;;;;;;;;
2021/01/16 03:18:25;;;;;;;2.3;1.8;;;;;;;;;;;;;
2021/01/16 03:20:50;;;;;;;1.6;1.5;;;;;;;;;;;;;
2021/01/16 03:23:15;;;;;;;2.6;2;;;;;;;;;;;;;
2021/01/16 03:25:41;;;;;;;3.2;1.5;;;;;;;;;;;;;
2021/01/16 03:28:05;;;;;;;5.1;1.8;;;;;;;;;;;;;
2021/01/16 03:30:31;;;;;;;2.5;1.2;;;;;;;;;;;;;
2021/01/16 03:32:56;;;;;;;1.4;1.3;;;;;;;;;;;;;
2021/01/16 03:35:21;;;;;;;4.9;1.5;;;;;;;;;;;;;
2021/01/16 03:37:46;;;;;;;5.7;1.7;;;;;;;;;;;;;
2021/01/16 03:40:11;;;;;;;4.1;1.9;;;;;;;;;;;;;
2021/01/16 03:42:37;;;;;;;2;1.5;;;;;;;;;;;;;
2021/01/16 03:45:02;;;;;;;6.2;1.6;;;;;;;;;;;;;
2021/01/16 03:47:27;;;;;;;8.5;1.6;;;;;;;;;;;;;
2021/01/16 03:49:52;;;;;;;3.6;1.4;;;;;;;;;;;;;
2021/01/16 03:52:17;;;;;;;2.8;1.8;;;;;;;;;;;;;
2021/01/16 03:54:42;;;;;;;2.8;1.9;;;;;;;;;;;;;
2021/01/16 03:57:07;;;;;;;3.2;1.8;;;;;;;;;;;;;
2021/01/16 03:59:33;;;;;;;1.8;1.5;;;;;;;;;;;;;
2021/01/16 04:02:30;;;;;;;4.8;1.3;;;;;;;-2.09;79.80664;944.3798;;;;
2021/01/16 04:04:55;;;;;;;2.8;1.8;;;;;;;-2.05;79.55859;944.4049;;;;
2021/01/16 04:07:21;;;;;;;3;1.2;;;;;;;-2.02;79.36621;944.4001;;;;
2021/01/16 04:09:46;;;;;;;1.7;1.5;;;;;;;-2;79.65723;944.4164;;;;
2021/01/16 04:12:11;;;;;;;2;1.4;;;;;;;-2.06;79.99121;944.4448;;;;
2021/01/16 04:14:37;;;;;;;2.2;1.7;;;;;;;-2.04;79.85059;944.3619;;;;
2021/01/16 04:17:02;;;;;;;1.3;1.2;;;;;;;-2.15;80.37305;944.4547;;;;
2021/01/16 04:19:28;;;;;;;1.9;1.3;;;;;;;-2.18;80.46582;944.4103;;;;
2021/01/16 04:21:54;;;;;;;6.1;1.4;;;;;;;-2.15;80.33984;944.4484;;;;
2021/01/16 04:24:19;;;;;;;3.1;1.8;;;;;;;-2.1;80.02637;944.4494;;;;
2021/01/16 04:26:48;;;;;;;1.4;1.3;;;;;;;-2.05;79.82422;944.4274;;;;
2021/01/16 04:29:13;;;;;;;1.7;1.1;;;;;;;-2.03;79.84082;944.4303;;;;
2021/01/16 04:31:39;;;;;;;2.3;1.1;;;;;;;-1.98;79.38574;944.4792;;;;
2021/01/16 04:34:04;;;;;;;1.5;1.2;;;;;;;-1.94;79.29199;944.4381;;;;
2021/01/16 04:36:29;;;;;;;1.8;1.4;;;;;;;-2.09;79.64941;944.5361;;;;
2021/01/16 04:38:54;;;;;;;2.9;1.4;;;;;;;-2.34;79.70508;944.558;;;;
2021/01/16 04:41:21;;;;;;;1.1;1;;;;;;;-2.47;79.78027;944.6199;;;;
2021/01/16 04:43:46;;;;;;;1.8;1.5;;;;;;;-2.46;80.14551;944.6175;;;;
2021/01/16 04:46:13;;;;;;;1.8;0.9;;;;;;;-2.53;81.15234;944.6189;;;;
2021/01/16 04:48:38;;;;;;;1.1;0.9;;;;;;;-2.61;81.59961;944.5584;;;;
2021/01/16 04:51:04;;;;;;;1.2;1;;;;;;;-2.63;81.75195;944.5349;;;;
2021/01/16 04:53:29;;;;;;;1.5;1.1;;;;;;;-2.63;81.71875;944.4984;;;;
2021/01/16 04:55:55;;;;;;;0.9;0.9;;;;;;;-2.66;81.72461;944.5344;;;;
2021/01/16 04:58:20;;;;;;;1.7;1.2;;;;;;;-2.75;82.03809;944.5165;;;;
2021/01/16 05:00:46;;;;;;;1.5;1;;;;;;;-2.86;82.2168;944.4512;;;;
2021/01/16 05:03:11;;;;;;;2.1;1.2;;;;;;;-2.86;82.31641;944.5364;;;;
2021/01/16 05:05:38;;;;;;;1.1;1;;;;;;;-2.75;82.28223;944.5014;;;;
2021/01/16 05:08:04;;;;;;;1.1;0.9;;;;;;;-2.67;82.1875;944.4327;;;;
2021/01/16 05:10:31;;;;;;;1.5;1.3;;;;;;;-2.7;82.02539;944.3851;;;;
2021/01/16 05:12:56;;;;;;;3;1;;;;;;;-2.64;81.98242;944.4329;;;;
2021/01/16 05:15:21;;;;;;;1.9;1.5;;;;;;;-2.56;81.89844;944.3508;;;;
2021/01/16 05:17:46;;;;;;;4.4;2.5;;;;;;;-2.39;81.73242;944.4747;;;;
2021/01/16 05:20:11;;;;;;;3.1;2.3;;;;;;;-2.32;80.94727;944.4286;;;;
2021/01/16 05:22:36;;;;;;;3.5;2.3;;;;;;;-2.28;80.5791;944.4519;;;;
2021/01/16 05:25:03;;;;;;;1.8;1.5;;;;;;;-2.25;80.89453;944.4467;;;;
2021/01/16 05:27:28;;;;;;;2.6;1.1;;;;;;;-2.2;80.99414;944.4638;;;;
2021/01/16 05:29:53;;;;;;;2.4;1.2;;;;;;;-2.16;80.40234;944.4178;;;;
2021/01/16 05:32:18;;;;;;;2.1;1.2;;;;;;;-2.1;79.9043;944.4911;;;;
2021/01/16 05:34:45;;;;;;;1.8;1.2;;;;;;;-2.05;79.68066;944.4961;;;;
2021/01/16 05:37:10;;;;;;;1.2;1.1;;;;;;;-1.96;79.2334;944.4971;;;;
2021/01/16 05:39:36;;;;;;;2.9;1.8;;;;;;;-1.94;78.79199;944.5284;;;;
2021/01/16 05:42:01;;;;;;;3;1.4;;;;;;;-1.91;78.63184;944.5182;;;;
2021/01/16 05:44:27;;;;;;;1.2;1.1;;;;;;;-1.87;78.60742;944.4828;;;;
2021/01/16 05:46:52;;;;;;;3.4;1.7;;;;;;;-1.91;78.97559;944.4611;;;;
2021/01/16 05:49:17;;;;;;;1.3;1.2;;;;;;;-1.86;78.74219;944.4372;;;;
2021/01/16 05:51:43;;;;;;;4.5;1.8;;;;;;;-1.93;78.77441;944.3929;;;;
2021/01/16 05:54:08;;;;;;;2.1;1.2;;;;;;;-1.99;79.21582;944.4124;;;;
2021/01/16 05:56:35;;;;;;;3;1.6;;;;;;;-2.06;79.5791;944.4361;;;;
2021/01/16 05:59:00;;;;;;;1.3;1.2;;;;;;;-2.27;81.10156;944.3727;;;;
2021/01/16 06:01:26;;;;;;;1.2;1.1;;;;;;;-2.21;80.64844;944.4681;;;;
2021/01/16 06:03:52;;;;;;;1.6;0.9;;;;;;;-2.19;80.18652;944.447;;;;
2021/01/16 06:06:18;;;;;;;1.8;1.3;;;;;;;-2.18;80.29883;944.4626;;;;
2021/01/16 06:08:43;;;;;;;1.3;1;;;;;;;-2.13;80.35352;944.5212;;;;
2021/01/16 06:11:09;;;;;;;1.7;1.5;;;;;;;-2.19;79.95215;944.5162;;;;
2021/01/16 06:13:34;;;;;;;1.4;1.3;;;;;;;-2.28;80.20313;944.4603;;;;
2021/01/16 06:15:59;;;;;;;0.7;0.7;;;;;;;-2.29;80.59961;944.4939;;;;
2021/01/16 06:18:26;;;;;;;2.2;1.3;;;;;;;-2.28;80.18066;944.5736;;;;
2021/01/16 06:20:51;;;;;;;1.2;1.1;;;;;;;-2.22;80.47852;944.5399;;;;
2021/01/16 06:23:16;;;;;;;2.6;1.3;;;;;;;-2.21;79.9707;944.5583;;;;
2021/01/16 06:25:41;;;;;;;2.3;1.6;;;;;;;-2.19;79.66406;944.5647;;;;
2021/01/16 06:28:06;;;;;;;5.3;1.5;;;;;;;-2.17;79.92383;944.5005;;;;
2021/01/16 06:30:31;;;;;;;1.3;1.1;;;;;;;-2.13;80.21875;944.5006;;;;
2021/01/16 06:32:57;;;;;;;4.8;1.9;;;;;;;-2.08;80.08496;944.6205;;;;
2021/01/16 06:35:22;;;;;;;1.3;1.2;;;;;;;-2.16;79.93848;944.6365;;;;
2021/01/16 06:37:47;;;;;;;1.4;1.3;;;;;;;-2.26;80.18555;944.6769;;;;
2021/01/16 06:40:12;;;;;;;1.4;1.1;;;;;;;-2.16;79.57129;944.7289;;;;
2021/01/16 06:42:37;;;;;;;1.4;1;;;;;;;-2.19;79.38867;944.7397;;;;
2021/01/16 06:45:02;;;;;;;1.5;0.8;;;;;;;-2.27;79.83887;944.7402;;;;
2021/01/16 06:47:27;;;;;;;0.9;0.8;;;;;;;-2.18;79.9668;944.7584;;;;
2021/01/16 06:49:52;;;;;;;2.3;1.6;;;;;;;-2.33;81.03418;944.8016;;;;
2021/01/16 06:52:17;;;;;;;1.6;1.1;;;;;;;-2.23;80.46777;944.7997;;;;
2021/01/16 06:54:43;;;;;;;2.4;1.1;;;;;;;-2.26;80.35156;944.7964;;;;
2021/01/16 06:57:08;;;;;;;1.5;1.3;;;;;;;-2.21;80.37207;944.7817;;;;
2021/01/16 06:59:33;;;;;;;1.5;1.1;;;;;;;-2.65;82.24805;944.7842;;;;
2021/01/16 07:01:58;;;;;;;1.7;1.3;;;;;;;-2.5;81.44531;944.7659;;;;
2021/01/16 07:04:23;;;;;;;1.7;1.3;;;;;;;-2.61;81.55762;944.8635;;;;
2021/01/16 07:06:48;;;;;;;1.4;1.3;;;;;;;-2.48;80.96191;944.8272;;;;
2021/01/16 07:09:13;;;;;;;3.1;1.3;;;;;;;-2.52;80.97559;944.747;;;;
2021/01/16 07:11:39;;;;;;;1.9;1.3;;;;;;;-2.5;80.92578;944.6817;;;;
2021/01/16 07:14:05;;;;;;;2.2;1.6;;;;;;;-2.41;81.00879;944.7749;;;;
2021/01/16 07:16:30;;;;;;;1.5;1.1;;;;;;;-2.35;80.98828;944.8006;;;;
2021/01/16 07:18:55;;;;;;;2.3;1.3;;;;;;;-2.47;81.04102;944.8082;;;;
2021/01/16 07:21:21;;;;;;;1.5;1.3;;;;;;;-2.37;81.06055;944.856;;;;
2021/01/16 07:23:46;;;;;;;1.4;0.9;;;;;;;-2.26;80.69336;944.8731;;;;
2021/01/16 07:26:11;;;;;;;1.5;1;;;;;;;-2.37;80.69629;944.9536;;;;
2021/01/16 07:28:37;;;;;;;3.2;1;;;;;;;-2.5;81.39063;944.8969;;;;
2021/01/16 07:31:01;;;;;;;4.7;1.4;;;;;;;-2.61;81.75488;944.9135;;;;
2021/01/16 07:33:27;;;;;;;1.3;1.2;;;;;;;-2.42;81.37109;944.9236;;;;
2021/01/16 07:35:52;;;;;;;1.5;1.3;;;;;;;-2.22;80.54688;944.8647;;;;
2021/01/16 07:38:17;;;;;;;2.4;1.3;;;;;;;-2.24;80.2002;944.8304;;;;
2021/01/16 07:40:44;;;;;;;1.8;1.2;;;;;;;-2.24;80.66406;944.8261;;;;
2021/01/16 07:43:09;;;;;;;0.7;0.7;;;;;;;-2.15;79.70605;944.861;;;;
2021/01/16 07:45:34;;;;;;;3.1;2.2;;;;;;;-2.56;81.25586;944.9239;;;;
2021/01/16 07:47:59;;;;;;;1.3;1.2;;;;;;;-2.36;80.61914;944.9821;;;;
2021/01/16 07:50:25;;;;;;;1.9;1.1;;;;;;;-2.22;80.09082;944.9554;;;;
2021/01/16 07:52:50;;;;;;;2.1;1.7;;;;;;;-2.06;79.64551;945.0016;;;;
2021/01/16 07:55:15;;;;;;;3.7;2.1;;;;;;;-2.01;80.24316;945.0184;;;;
2021/01/16 07:57:40;;;;;;;2.4;1.4;;;;;;;-1.91;79.99805;944.9717;;;;
2021/01/16 08:00:06;;;;;;;12.9;7.2;;;;;;;-2.05;79.86914;945.0287;;;;
2021/01/16 08:02:31;;;;;;;5.5;3.3;;;;;;;-1.92;79.57324;945.0279;;;;
2021/01/16 08:04:56;;;;;;;5.5;3.6;;;;;;;-1.95;79.74512;945.0359;;;;
2021/01/16 08:07:21;;;;;;;3.5;2;;;;;;;-2.01;79.75586;945.0128;;;;
2021/01/16 08:09:46;;;;;;;2.6;2.1;;;;;;;-1.91;79.91699;944.9908;;;;
2021/01/16 08:12:11;;;;;;;2.9;1.8;;;;;;;-1.78;79.77637;945.0285;;;;
2021/01/16 08:14:41;;;;;;;2.5;1.9;;;;;;;-1.7;79.43652;944.9777;;;;
2021/01/16 08:17:06;;;;;;;3.6;2.1;;;;;;;-1.85;79.29883;945.001;;;;
2021/01/16 08:19:32;;;;;;;2.6;2.1;;;;;;;-1.93;79.9707;944.9102;;;;
2021/01/16 08:21:57;;;;;;;3.7;2.4;;;;;;;-1.86;79.86035;944.9498;;;;
2021/01/16 08:24:25;;;;;;;2.8;2;;;;;;;-1.91;79.87402;944.9302;;;;
2021/01/16 08:26:48;;;;;;;4.7;2.7;;;;;;;-1.84;79.67578;944.8784;;;;
2021/01/16 08:29:13;;;;;;;4.1;2.4;;;;;;;-1.8;79.46191;944.7625;;;;
2021/01/16 08:31:38;;;;;;;3.3;2.1;;;;;;;-1.56;79.42871;944.8186;;;;
2021/01/16 08:34:04;;;;;;;3.4;1.9;;;;;;;-1.37;78.47656;944.855;;;;
2021/01/16 08:36:29;;;;;;;4.7;2.1;;;;;;;-1.5;77.78906;944.7719;;;;
2021/01/16 08:38:54;;;;;;;1.9;1.7;;;;;;;-1.26;78.50977;944.7932;;;;
2021/01/16 08:41:20;;;;;;;1.9;1.3;;;;;;;-1.11;77.91602;944.7862;;;;
2021/01/16 08:43:45;;;;;;;2.5;1.9;;;;;;;-0.8;76.66113;944.7639;;;;
2021/01/16 08:46:10;;;;;;;4.8;1.8;;;;;;;-0.72;75.42871;944.7296;;;;
2021/01/16 08:48:36;;;;;;;4.5;2.1;;;;;;;-0.55;75.33887;944.7467;;;;
2021/01/16 08:51:01;;;;;;;6.1;3.6;;;;;;;-0.05;73.44434;944.6663;;;;
2021/01/16 08:53:26;;;;;;;5.5;3.9;;;;;;;0.35;71.61914;944.738;;;;
2021/01/16 08:55:51;;;;;;;7.9;3.8;;;;;;;0.68;70.37012;944.7129;;;;
2021/01/16 08:58:17;;;;;;;13.9;4.1;;;;;;;0.79;70.03125;944.6508;;;;
2021/01/16 09:00:42;;;;;;;3.3;2.6;;;;;;;1.01;69.44336;944.7147;;;;
2021/01/16 09:03:07;;;;;;;2.2;1.8;;;;;;;1.19;68.12109;944.7583;;;;
2021/01/16 09:05:33;;;;;;;6.9;3.2;;;;;;;1.53;66.49805;944.6348;;;;
2021/01/16 09:07:59;;;;;;;7.1;3.5;;;;;;;1.47;67.38184;944.6702;;;;
2021/01/16 09:10:24;;;;;;;3.3;2.5;;;;;;;1.68;66.50879;944.7176;;;;
2021/01/16 09:12:50;;;;;;;3.4;2.2;;;;;;;1.72;65.86719;944.726;;;;
2021/01/16 09:15:14;;;;;;;4.3;2.5;;;;;;;1.7;66.1875;944.6512;;;;
2021/01/16 09:17:40;;;;;;;9.5;5.1;;;;;;;1.67;67.02344;944.5958;;;;
2021/01/16 09:20:05;;;;;;;10.2;5.2;;;;;;;1.42;66.36719;944.6806;;;;
2021/01/16 09:22:30;;;;;;;6.8;3.5;;;;;;;1.32;67.88281;944.6569;;;;
2021/01/16 09:24:55;;;;;;;5.1;2.9;;;;;;;0.94;69.63086;944.6559;;;;
2021/01/16 09:27:20;;;;;;;4.2;2.7;;;;;;;0.86;69.62988;944.663;;;;
2021/01/16 09:29:47;;;;;;;4.7;3.6;;;;;;;0.87;69.77832;944.6337;;;;
2021/01/16 09:32:13;;;;;;;8.7;3.9;;;;;;;0.67;69.375;944.6591;;;;
2021/01/16 09:34:37;;;;;;;3.5;2.8;;;;;;;0.67;69.97754;944.6339;;;;
2021/01/16 09:37:02;;;;;;;7.3;3.4;;;;;;;0.39;70.87891;944.7522;;;;
2021/01/16 09:39:28;;;;;;;3.8;2.4;;;;;;;0.65;70.23047;944.6297;;;;
2021/01/16 09:41:53;;;;;;;41.6;21.4;;;;;;;0.75;68.41797;944.6962;;;;
2021/01/16 09:44:18;;;;;;;18.9;11.2;;;;;;;0.57;68.46484;944.7294;;;;
2021/01/16 09:46:45;;;;;;;3.7;2;;;;;;;0.44;69.97363;944.6692;;;;
2021/01/16 09:49:10;;;;;;;4;1.8;;;;;;;0.03;72.72363;944.647;;;;
2021/01/16 09:51:35;;;;;;;2;1.8;;;;;;;0.06;72.69531;944.5726;;;;
2021/01/16 09:54:00;;;;;;;5.3;2.4;;;;;;;0.15;72.14258;944.5711;;;;
2021/01/16 09:56:26;;;;;;;3.1;1.4;;;;;;;0.24;72.29102;944.5627;;;;
2021/01/16 09:58:51;;;;;;;3;1.8;;;;;;;0.39;71.10254;944.5219;;;;
2021/01/16 10:01:16;;;;;;;2.4;1.8;;;;;;;0.39;71.47949;944.3922;;;;
2021/01/16 10:03:41;;;;;;;2.9;1.7;;;;;;;0.46;70.64648;944.3624;;;;
2021/01/16 10:06:07;;;;;;;2;1.6;;;;;;;0.44;70.38477;944.3594;;;;
2021/01/16 10:08:33;;;;;;;3.3;1.8;;;;;;;0.37;70.31738;944.3206;;;;
2021/01/16 10:11:00;;;;;;;3.3;2.3;;;;;;;0.41;70.0791;944.3016;;;;
2021/01/16 10:13:25;;;;;;;3.5;2.4;;;;;;;-0.32;72.01758;944.3361;;;;
2021/01/16 10:15:51;;;;;;;3.7;2.2;;;;;;;-0.04;71.97656;944.2545;;;;
2021/01/16 10:18:16;;;;;;;3.2;1.9;;;;;;;0.03;71.76563;944.178;;;;
2021/01/16 10:20:42;;;;;;;2.3;1.8;;;;;;;0.19;71.37012;944.1378;;;;
2021/01/16 10:23:10;;;;;;;2.9;1.7;;;;;;;0.1;71.54395;944.0524;;;;
2021/01/16 10:25:35;;;;;;;4.5;2.1;;;;;;;0.16;71.14063;944.0359;;;;
2021/01/16 10:28:02;;;;;;;3.7;2;;;;;;;0.3;70.90723;944.0229;;;;
2021/01/16 10:30:29;;;;;;;1.9;1.5;;;;;;;0.56;71.13086;943.9749;;;;
2021/01/16 10:32:54;;;;;;;2.9;1.8;;;;;;;0.73;70.39941;943.9637;;;;
2021/01/16 10:35:19;;;;;;;4.9;1.9;;;;;;;0.95;69.26465;943.9598;;;;
2021/01/16 10:37:47;;;;;;;5.4;2.3;;;;;;;0.95;67.95898;943.8382;;;;
2021/01/16 10:40:12;;;;;;;5;2.7;;;;;;;0.79;69.69629;943.8356;;;;
2021/01/16 10:42:40;;;;;;;5.3;2;;;;;;;1.09;68.21484;943.7584;;;;
2021/01/16 10:45:05;;;;;;;4.9;2.5;;;;;;;1.35;67.91113;943.81;;;;
2021/01/16 10:47:31;;;;;;;3.8;2.7;;;;;;;1.61;66.73535;943.7622;;;;
2021/01/16 10:49:58;;;;;;;3;2;;;;;;;1.87;65.76855;943.7145;;;;
2021/01/16 10:52:21;;;;;;;4.6;2.4;;;;;;;2.34;64.85449;943.6461;;;;
2021/01/16 10:54:47;;;;;;;3;2.1;;;;;;;2.84;63.86621;943.5922;;;;
2021/01/16 10:57:12;;;;;;;2.8;2.1;;;;;;;3.2;61.57422;943.5508;;;;
2021/01/16 10:59:38;;;;;;;3.4;1.9;;;;;;;3.08;58.98828;943.4819;;;;
2021/01/16 11:02:02;;;;;;;6.3;2.5;;;;;;;3.11;61.70703;943.4525;;;;
2021/01/16 11:04:29;;;;;;;4;2;;;;;;;2.78;61.2666;943.4531;;;;
2021/01/16 11:06:55;;;;;;;3.2;2.3;;;;;;;2.69;62.33105;943.3131;;;;
2021/01/16 11:09:20;;;;;;;4.5;2.8;;;;;;;2.96;62.2793;943.4106;;;;
2021/01/16 11:11:45;;;;;;;4.3;2.7;;;;;;;3.31;62.98242;943.2949;;;;
2021/01/16 11:14:10;;;;;;;4;2.4;;;;;;;3.63;60.90527;943.3655;;;;
2021/01/16 11:16:35;;;;;;;3.2;2.1;;;;;;;4.04;60.06543;943.3348;;;;
2021/01/16 11:19:00;;;;;;;4.2;2.7;;;;;;;3.99;60.64258;943.3157;;;;
2021/01/16 11:21:25;;;;;;;2.9;2;;;;;;;4;58.66504;943.223;;;;
2021/01/16 11:23:53;;;;;;;6.1;2.4;;;;;;;4.22;59.50586;943.2582;;;;
2021/01/16 11:26:17;;;;;;;3.3;2.2;;;;;;;4.11;59.55859;943.2492;;;;
2021/01/16 11:28:42;;;;;;;4.6;2.4;;;;;;;4.19;59.08594;943.1675;;;;
2021/01/16 11:31:09;;;;;;;2.8;2;;;;;;;4.11;58.95117;943.1241;;;;
2021/01/16 11:33:34;;;;;;;3.4;2.2;;;;;;;4.24;58.58594;942.9949;;;;
2021/01/16 11:35:59;;;;;;;3.4;2.2;;;;;;;4.14;58.30176;943.0519;;;;
2021/01/16 11:38:24;;;;;;;4.5;2.4;;;;;;;4.49;57.46094;943.0358;;;;
2021/01/16 11:40:49;;;;;;;4.3;2.6;;;;;;;4.31;58.4043;943.0442;;;;
2021/01/16 11:43:14;;;;;;;3.8;2.4;;;;;;;4.53;57.96289;942.9178;;;;
2021/01/16 11:45:39;;;;;;;4.5;2.5;;;;;;;4.89;57.4248;942.8926;;;;
2021/01/16 11:48:05;;;;;;;3.8;2.3;;;;;;;5.08;57.08887;942.9316;;;;
2021/01/16 11:50:30;;;;;;;3.1;2.1;;;;;;;4.86;57.27344;942.9238;;;;
2021/01/16 11:52:55;;;;;;;4.4;2.5;;;;;;;4.91;56.85254;942.9202;;;;
2021/01/16 11:55:21;;;;;;;4;2;;;;;;;4.95;56.49707;942.8808;;;;
2021/01/16 11:57:45;;;;;;;4.2;1.7;;;;;;;5.04;56.72363;942.793;;;;
2021/01/16 12:00:11;;;;;;;2.2;1;;;;;;;4.99;56.625;942.778;;;;
2021/01/16 12:02:36;;;;;;;3;1.6;;;;;;;4.64;56.10742;942.7346;;;;
2021/01/16 12:05:01;;;;;;;1.4;1.1;;;;;;;4.8;57.08594;942.7507;;;;
2021/01/16 12:07:26;;;;;;;3.5;1.7;;;;;;;4.9;57.99023;942.7188;;;;
2021/01/16 12:09:51;;;;;;;2.7;2.1;;;;;;;4.91;56.66016;942.7291;;;;
2021/01/16 12:12:16;;;;;;;2.6;1.7;;;;;;;4.17;57.58594;942.6747;;;;
2021/01/16 12:14:42;;;;;;;5.4;2.5;;;;;;;2.94;61.90723;942.6461;;;;
2021/01/16 12:17:07;;;;;;;3;2.1;;;;;;;2.45;64.52441;942.587;;;;
2021/01/16 12:19:32;;;;;;;2;1.8;;;;;;;2.59;63.81836;942.6439;;;;
2021/01/16 12:21:57;;;;;;;1.8;1.7;;;;;;;2.67;63.88477;942.5242;;;;
2021/01/16 12:24:22;;;;;;;3.9;1.8;;;;;;;2.71;63.71094;942.5613;;;;
2021/01/16 12:26:47;;;;;;;3.1;2;;;;;;;2.25;65.55859;942.5665;;;;
2021/01/16 12:29:12;;;;;;;2.5;1.9;;;;;;;2.59;64.69141;942.5314;;;;
2021/01/16 12:31:37;;;;;;;2.8;1.6;;;;;;;2.94;63.98242;942.4683;;;;
2021/01/16 12:34:02;;;;;;;2.4;1.4;;;;;;;3.27;62.70801;942.4551;;;;
2021/01/16 12:36:27;;;;;;;3;2.3;;;;;;;3.57;61.33594;942.4578;;;;
2021/01/16 12:38:52;;;;;;;3.7;1.9;;;;;;;3.26;62.86328;942.3344;;;;
2021/01/16 12:41:18;;;;;;;2.1;1.4;;;;;;;3.55;62.15234;942.3528;;;;
2021/01/16 12:43:43;;;;;;;3;1.6;;;;;;;3.85;61.25293;942.3448;;;;
2021/01/16 12:46:08;;;;;;;4.6;1.8;;;;;;;3.17;60.31348;942.3386;;;;
2021/01/16 12:48:34;;;;;;;3.3;1.6;;;;;;;3.5;61.60645;942.2974;;;;
2021/01/16 12:50:59;;;;;;;1.9;1.4;;;;;;;3.27;60.93262;942.2581;;;;
2021/01/16 12:53:25;;;;;;;3.2;1.8;;;;;;;3.24;61.59082;942.1418;;;;
2021/01/16 12:55:50;;;;;;;3.2;2.2;;;;;;;3.38;59.98242;942.1691;;;;
2021/01/16 12:58:15;;;;;;;3.3;2.3;;;;;;;2.89;62.13574;942.1099;;;;
2021/01/16 13:00:40;;;;;;;2.4;1.6;;;;;;;2.89;61.79883;942.1108;;;;
2021/01/16 13:03:05;;;;;;;4;2.4;;;;;;;2.62;63.07031;942.077;;;;
2021/01/16 13:05:31;;;;;;;1.6;1.5;;;;;;;2.93;63.56543;942.0187;;;;
2021/01/16 13:07:57;;;;;;;3.1;2.3;;;;;;;2.91;62.57617;942.0266;;;;
2021/01/16 13:10:22;;;;;;;2.1;1.7;;;;;;;2.82;62.9873;942.0248;;;;
2021/01/16 13:12:47;;;;;;;2;1.5;;;;;;;2.82;62.44922;941.9266;;;;
2021/01/16 13:15:13;;;;;;;1.7;1.3;;;;;;;2.93;62.5;941.9025;;;;
2021/01/16 13:17:38;;;;;;;5.2;2.1;;;;;;;3.03;61.59473;941.8818;;;;
2021/01/16 13:20:03;;;;;;;3.3;1.8;;;;;;;3.14;61.65527;941.8361;;;;
2021/01/16 13:22:28;;;;;;;4.4;1.7;;;;;;;3.25;61.62598;941.813;;;;
2021/01/16 13:24:55;;;;;;;3.3;1.6;;;;;;;3.23;61.71289;941.8474;;;;
2021/01/16 13:27:20;;;;;;;3.6;1.9;;;;;;;3.18;61.81738;941.7914;;;;
2021/01/16 13:29:46;;;;;;;3.2;1.8;;;;;;;2.92;62.30664;941.7917;;;;
2021/01/16 13:32:12;;;;;;;1.8;1.7;;;;;;;2.89;62.64063;941.7466;;;;
2021/01/16 13:34:38;;;;;;;6.5;3.7;;;;;;;2.36;64.10645;941.7729;;;;
2021/01/16 13:37:03;;;;;;;19.9;7.9;;;;;;;2.29;63.88379;941.7275;;;;
2021/01/16 13:39:28;;;;;;;4.3;2.5;;;;;;;2.21;63.07715;941.7153;;;;
2021/01/16 13:41:55;;;;;;;3;1.8;;;;;;;2.35;63.84766;941.6578;;;;
2021/01/16 13:44:21;;;;;;;4.4;2;;;;;;;2.39;63.97754;941.6322;;;;
2021/01/16 13:46:49;;;;;;;14.4;5.6;;;;;;;2.56;64.17188;941.618;;;;
2021/01/16 13:49:13;;;;;;;1.9;1.5;;;;;;;2.66;63.13281;941.5898;;;;
2021/01/16 13:51:38;;;;;;;4.4;2.9;;;;;;;2.11;63.8125;941.579;;;;
2021/01/16 13:54:04;;;;;;;4.9;3;;;;;;;1.96;65.12109;941.6535;;;;
2021/01/16 13:56:28;;;;;;;7.1;3.7;;;;;;;1.69;66.94824;941.6383;;;;
2021/01/16 13:58:54;;;;;;;4.8;2.6;;;;;;;1.95;66.45117;941.6019;;;;
2021/01/16 14:01:23;;;;;;;4.3;2.3;;;;;;;2.08;65.89063;941.592;;;;
2021/01/16 14:03:50;;;;;;;4.5;2.6;;;;;;;2.16;65.7002;941.5176;;;;
2021/01/16 14:06:14;;;;;;;6;2.8;;;;;;;2.26;65.98535;941.5975;;;;
2021/01/16 14:08:39;;;;;;;6.5;2.9;;;;;;;2.17;64.0332;941.5511;;;;
2021/01/16 14:11:05;;;;;;;6.3;3.4;;;;;;;2.27;64.23926;941.5506;;;;
2021/01/16 14:13:32;;;;;;;5.5;2.8;;;;;;;2.12;64.74219;941.4688;;;;
2021/01/16 14:15:57;;;;;;;4;2.3;;;;;;;2;65.85547;941.4556;;;;
2021/01/16 14:18:22;;;;;;;6.4;2.9;;;;;;;1.91;64.74414;941.5814;;;;
2021/01/16 14:20:47;;;;;;;5.9;2.7;;;;;;;1.95;65.3877;941.558;;;;
2021/01/16 14:23:12;;;;;;;5.1;2.7;;;;;;;1.87;65.76855;941.5347;;;;
2021/01/16 14:25:39;;;;;;;5.4;2.3;;;;;;;1.57;65.67578;941.61;;;;
2021/01/16 14:28:06;;;;;;;3.7;2.7;;;;;;;1.54;66.65527;941.5327;;;;
2021/01/16 14:30:30;;;;;;;3.9;2.7;;;;;;;1.57;66.48145;941.5734;;;;
2021/01/16 14:32:58;;;;;;;4.1;3.1;;;;;;;1.26;67.72852;941.55;;;;
2021/01/16 14:35:23;;;;;;;2;1.8;;;;;;;1.16;68.53906;941.5613;;;;
2021/01/16 14:37:47;;;;;;;4.7;2.3;;;;;;;0.87;68.78418;941.5233;;;;
2021/01/16 14:40:14;;;;;;;3.3;2.2;;;;;;;0.86;68.94922;941.4773;;;;
2021/01/16 14:42:39;;;;;;;2.6;2.4;;;;;;;0.86;68.50098;941.452;;;;
2021/01/16 14:45:06;;;;;;;12.5;3.7;;;;;;;1.17;67.42383;941.4529;;;;
2021/01/16 14:47:31;;;;;;;6.7;2.4;;;;;;;1.39;66.51953;941.4758;;;;
2021/01/16 14:49:55;;;;;;;3.3;2.2;;;;;;;1.14;68.05469;941.3978;;;;
2021/01/16 14:52:23;;;;;;;6.8;3;;;;;;;1.7;66.48926;941.4408;;;;
2021/01/16 14:54:47;;;;;;;6.6;3.6;;;;;;;2.4;64.04688;941.4196;;;;
2021/01/16 14:57:12;;;;;;;8.8;3.9;;;;;;;2.35;62.33496;941.4409;;;;
2021/01/16 14:59:37;;;;;;;3.8;2.7;;;;;;;2.28;62.45996;941.4169;;;;
2021/01/16 15:02:02;;;;;;;4.6;2.9;;;;;;;1.8;64.7168;941.4247;;;;
2021/01/16 15:04:27;;;;;;;5.1;3.2;;;;;;;1.43;66.81738;941.4213;;;;
2021/01/16 15:06:52;;;;;;;3.9;2.6;;;;;;;0.78;67.47363;941.3785;;;;
2021/01/16 15:09:18;;;;;;;5.5;2.3;;;;;;;0.35;68.55273;941.4811;;;;
2021/01/16 15:11:44;;;;;;;7.6;2.8;;;;;;;-0.25;71.38379;941.4344;;;;
2021/01/16 15:14:07;;;;;;;3.4;2.7;;;;;;;-0.55;73.06738;941.4221;;;;
2021/01/16 15:16:35;;;;;;;3.3;2.5;;;;;;;-0.72;74.19629;941.4508;;;;
2021/01/16 15:19:00;;;;;;;7;3.1;;;;;;;-0.79;74.50586;941.4302;;;;
2021/01/16 15:21:26;;;;;;;4.5;2.8;;;;;;;-1.23;76.85059;941.5172;;;;
2021/01/16 15:23:50;;;;;;;5.2;3.5;;;;;;;-1.25;77.01172;941.4475;;;;
2021/01/16 15:26:17;;;;;;;2.8;2.2;;;;;;;-1.35;78.03613;941.5072;;;;
2021/01/16 15:28:42;;;;;;;7.2;3.7;;;;;;;-1.49;78.39941;941.4451;;;;
2021/01/16 15:31:10;;;;;;;6.2;3.5;;;;;;;-1.65;78.62598;941.4324;;;;
2021/01/16 15:33:34;;;;;;;5.1;4;;;;;;;-1.71;79.02441;941.5097;;;;